Airfield :
LOGIN :

Register | Disclaimer

   EN    FR    IT 

 










Legend :    VFR   Marginal VFR   IFR   Intensive IFR   Very Intensive IFR
Visi :
Ceiling :
>= 8 km
>= 3000ft
5 to 8 km
1000 to 3000 ft
1500m to 5 km
500 to 1000 ft
800 to 1500m
200 to 500 ft
< 800m
< 200 ft
Symbols :   Thunderstorms  Fog  Heavy snow  Heavy precipitations  Wind > 20 kt
SIGMETs :     Misc.  Thunderstorms  Icing  Turbulence  Mountain Waves  Volcanic Ashes






- Airport Elevation : 648 ft
- IATA code : INI


LYNI - Nis Constantine

CURRENT METAR :
  • 270230Z 33021KT 310V080 9999 SCT007 BKN060 06/03 Q1000 NOSIG

EXPIRED METARs :
  • 270200Z 33014KT 310V020 9999 BKN060 07/04 Q0999 NOSIG
  • 270130Z VRB11KT 9999 FEW070 07/05 Q0999 NOSIG
  • 270100Z 32009KT 280V080 9999 FEW043 08/05 Q0999 NOSIG
  • 270030Z VRB03KT 9999 FEW043 BKN067 08/05 Q0999 NOSIG
  • 270000Z 00000KT 9999 FEW043 BKN067 09/05 Q0999 NOSIG
  • 262330Z 33007KT 300V020 9999 FEW050 SCT070 10/05 Q0999 NOSIG

TAF TAF LYNI
Valid from the 27 at 00:00 until the 28 at 00:00 UTC


262300Z 2700/2724 32015KT 5000 RA BR BKN007 BKN030 TX07/2700Z TN02/2724Z
BECMG 2710/2712 9999 NSW SCT010 BKN033



MET'MAP, your aeronautical weather chart ! - Copyright ORBIFLY December 2007 - Disclaimer

ORBIFLY MET'MAP TEAM :

Programming & Development : Alexandra Zaïnal
Concept & original design : Baudouin d'Aumeries
Assistance for programming : Marc-Olivier Méhu
Technical & hardware support : Manuel Goepfert

Contact : metmap@orbifly.com




SOURCES & CREDITS :

   NOAA